Pagrindinis puslapis
METAR-TAF:

METAR-TAF

Oro uostai :

Nakhon Phanom, Tailandas

platuma: 17-23-02N, ilguma: 104-38-35E, Aukštis: 179 m

Dabartinis oras

Ataskaita buvo paskelbta 10 valandos ir 29 minutes, ne 13:00 UTC
Vėjas 6 kt iš Rytų/Pietryčių
Temperatūra 20°C
Drėgmė 78%
Slėgis 1017 hPa
Matomumas 10 km arba daugiau
nėra debesų žemiau 1500 m ir nėra kamuolinių lietaus debesų

METAR: VTUW 291300Z 12006KT CAVOK 20/16 Q1017 NOSIG

Laikas: 06:29 (23:29 UTC)

Prognozė

Ataskaita buvo paskelbta 6 valandos ir 29 minutes, ne 17:00 UTC
Prognozė galioja nuo 29 metu 18 UTC su 30 metu 18 UTC
Vėjas 7 kt iš Rytų
Matomumas 10 km arba daugiau
Mažai debesys ne aukštis 4000 ft

TAF: VTUW 291700Z 2918/3018 09007KT 9999 FEW040

Orai ataskaitas ir orų prognozės (METAR, TAF).

turimą stotys yra geltonos ir raudonos taškus žemėlapyje.

Perkelti pele per norėdami pamatyti stoties vardą.

Tada spustelėkite, norėdami matyti oro stebėjimo ir prognozės.

Norėdami pakeisti žemėlapį: spustelėkite ant žalios mygtukų su juodo kryžiaus žemyn,; žalią mygtuką su brūkšneliu, jei norite nutolinti; arba žalių rodyklių gretimoms žemėlapius.


METAR-TAF: